Pagrindinis puslapis
METAR-TAF:

METAR-TAF

Oro uostai :

Liuleo, Švedija

platuma: 65-33N, ilguma: 022-08E, Aukštis: 17 m

Dabartinis oras

Ataskaita buvo paskelbta 21 minutes, ne 23:20 UTC
Vėjas 6 kt iš Šiaurės/Šiaurės Vakarų
Temperatūra 10°C
Drėgmė 93%
Slėgis 998 hPa
Matomumas 10 km arba daugiau

METAR: ESPA 012320Z AUTO 33006KT 9999 NCD 10/09 Q0998

Laikas: 01:41 (23:41 UTC)

Prognozė

Ataskaita buvo paskelbta 6 valandos ir 11 minutes, ne 17:30 UTC
Prognozė galioja nuo 01 metu 18 UTC su 01 metu 22 UTC
Vėjas 8 kt iš Šiaurės/Šiaurės Vakarų
Matomumas 10 km arba daugiau
Išsisklaidę debesys ne aukštis 4500 ft

TAF: ESPA 011730Z 0118/0122 34008KT 9999 SCT045

Orai ataskaitas ir orų prognozės (METAR, TAF).

turimą stotys yra geltonos ir raudonos taškus žemėlapyje.

Perkelti pele per norėdami pamatyti stoties vardą.

Tada spustelėkite, norėdami matyti oro stebėjimo ir prognozės.

Norėdami pakeisti žemėlapį: spustelėkite ant žalios mygtukų su juodo kryžiaus žemyn,; žalią mygtuką su brūkšneliu, jei norite nutolinti; arba žalių rodyklių gretimoms žemėlapius.


METAR-TAF: